sensor_id;sensor_type;location;lat;lon;timestamp;temperature;humidity
56725;DHT22;42608;52.776;6.968;2023-02-13T00:02:07;7.70;99.90
56725;DHT22;42608;52.776;6.968;2023-02-13T00:04:33;7.70;99.90
56725;DHT22;42608;52.776;6.968;2023-02-13T00:06:59;7.70;99.90
56725;DHT22;42608;52.776;6.968;2023-02-13T00:09:24;7.60;99.90
56725;DHT22;42608;52.776;6.968;2023-02-13T00:11:50;7.70;99.90
56725;DHT22;42608;52.776;6.968;2023-02-13T00:14:15;7.60;99.90
56725;DHT22;42608;52.776;6.968;2023-02-13T00:16:41;7.60;99.90
56725;DHT22;42608;52.776;6.968;2023-02-13T00:19:07;7.60;99.90
56725;DHT22;42608;52.776;6.968;2023-02-13T00:21:32;7.60;99.90
56725;DHT22;42608;52.776;6.968;2023-02-13T00:23:58;7.60;99.90
56725;DHT22;42608;52.776;6.968;2023-02-13T00:26:23;7.60;99.90
56725;DHT22;42608;52.776;6.968;2023-02-13T00:28:49;7.60;99.90
56725;DHT22;42608;52.776;6.968;2023-02-13T00:31:18;7.50;99.90
56725;DHT22;42608;52.776;6.968;2023-02-13T00:33:44;7.50;99.90
56725;DHT22;42608;52.776;6.968;2023-02-13T00:36:11;7.50;99.90
56725;DHT22;42608;52.776;6.968;2023-02-13T00:38:37;7.50;99.90
56725;DHT22;42608;52.776;6.968;2023-02-13T00:41:03;7.50;99.90
56725;DHT22;42608;52.776;6.968;2023-02-13T00:43:29;7.50;99.90
56725;DHT22;42608;52.776;6.968;2023-02-13T00:45:55;7.50;99.90
56725;DHT22;42608;52.776;6.968;2023-02-13T00:48:23;7.50;99.90
56725;DHT22;42608;52.776;6.968;2023-02-13T00:50:49;7.50;99.90
56725;DHT22;42608;52.776;6.968;2023-02-13T00:53:16;7.50;99.90
56725;DHT22;42608;52.776;6.968;2023-02-13T00:55:41;7.40;99.90
56725;DHT22;42608;52.776;6.968;2023-02-13T00:58:07;7.50;99.90
56725;DHT22;42608;52.776;6.968;2023-02-13T01:00:32;7.50;99.90
56725;DHT22;42608;52.776;6.968;2023-02-13T01:02:58;7.50;99.90
56725;DHT22;42608;52.776;6.968;2023-02-13T01:05:24;7.50;99.90
56725;DHT22;42608;52.776;6.968;2023-02-13T01:07:49;7.50;99.90
56725;DHT22;42608;52.776;6.968;2023-02-13T01:10:16;7.50;99.90
56725;DHT22;42608;52.776;6.968;2023-02-13T01:12:41;7.40;99.90
56725;DHT22;42608;52.776;6.968;2023-02-13T01:15:07;7.40;99.90
56725;DHT22;42608;52.776;6.968;2023-02-13T01:17:33;7.50;99.90
56725;DHT22;42608;52.776;6.968;2023-02-13T01:19:58;7.40;99.90
56725;DHT22;42608;52.776;6.968;2023-02-13T01:22:24;7.40;99.90
56725;DHT22;42608;52.776;6.968;2023-02-13T01:24:49;7.40;99.90
56725;DHT22;42608;52.776;6.968;2023-02-13T01:27:15;7.50;99.90
56725;DHT22;42608;52.776;6.968;2023-02-13T01:29:40;7.50;99.90
56725;DHT22;42608;52.776;6.968;2023-02-13T01:32:06;7.40;99.90
56725;DHT22;42608;52.776;6.968;2023-02-13T01:34:32;7.50;99.90
56725;DHT22;42608;52.776;6.968;2023-02-13T01:36:58;7.50;99.90
56725;DHT22;42608;52.776;6.968;2023-02-13T01:39:23;7.50;99.90
56725;DHT22;42608;52.776;6.968;2023-02-13T01:41:49;7.40;99.90
56725;DHT22;42608;52.776;6.968;2023-02-13T01:46:59;7.50;99.90
56725;DHT22;42608;52.776;6.968;2023-02-13T01:49:24;7.40;99.90
56725;DHT22;42608;52.776;6.968;2023-02-13T01:51:51;7.40;99.90
56725;DHT22;42608;52.776;6.968;2023-02-13T01:54:19;7.40;99.90
56725;DHT22;42608;52.776;6.968;2023-02-13T01:56:46;7.40;99.90
56725;DHT22;42608;52.776;6.968;2023-02-13T01:59:14;7.40;99.90
56725;DHT22;42608;52.776;6.968;2023-02-13T02:01:41;7.40;99.90
56725;DHT22;42608;52.776;6.968;2023-02-13T02:04:14;7.50;99.90
56725;DHT22;42608;52.776;6.968;2023-02-13T02:06:44;7.50;99.90
56725;DHT22;42608;52.776;6.968;2023-02-13T02:09:12;7.50;99.90
56725;DHT22;42608;52.776;6.968;2023-02-13T02:11:52;7.50;99.90
56725;DHT22;42608;52.776;6.968;2023-02-13T02:14:19;7.50;99.90
56725;DHT22;42608;52.776;6.968;2023-02-13T02:16:45;7.50;99.90
56725;DHT22;42608;52.776;6.968;2023-02-13T02:19:18;7.50;99.90
56725;DHT22;42608;52.776;6.968;2023-02-13T02:21:58;7.50;99.90
56725;DHT22;42608;52.776;6.968;2023-02-13T02:24:37;7.40;99.90
56725;DHT22;42608;52.776;6.968;2023-02-13T02:40:23;7.40;99.90
56725;DHT22;42608;52.776;6.968;2023-02-13T02:48:11;7.40;99.90
56725;DHT22;42608;52.776;6.968;2023-02-13T02:51:00;7.40;99.90
56725;DHT22;42608;52.776;6.968;2023-02-13T02:53:39;7.30;99.90
56725;DHT22;42608;52.776;6.968;2023-02-13T02:56:21;7.30;99.90
56725;DHT22;42608;52.776;6.968;2023-02-13T03:01:35;7.30;99.90
56725;DHT22;42608;52.776;6.968;2023-02-13T03:04:30;7.20;99.90
56725;DHT22;42608;52.776;6.968;2023-02-13T03:07:16;7.20;99.90
56725;DHT22;42608;52.776;6.968;2023-02-13T03:09:47;7.20;99.90
56725;DHT22;42608;52.776;6.968;2023-02-13T03:12:38;7.20;99.90
56725;DHT22;42608;52.776;6.968;2023-02-13T03:15:24;7.20;99.90
56725;DHT22;42608;52.776;6.968;2023-02-13T03:17:51;7.20;99.90
56725;DHT22;42608;52.776;6.968;2023-02-13T03:23:56;7.20;99.90
56725;DHT22;42608;52.776;6.968;2023-02-13T03:26:47;7.30;99.90
56725;DHT22;42608;52.776;6.968;2023-02-13T03:29:21;7.30;99.90
56725;DHT22;42608;52.776;6.968;2023-02-13T03:32:16;7.30;99.90
56725;DHT22;42608;52.776;6.968;2023-02-13T03:34:47;7.30;99.90
56725;DHT22;42608;52.776;6.968;2023-02-13T03:37:34;7.30;99.90
56725;DHT22;42608;52.776;6.968;2023-02-13T03:40:21;7.20;99.90
56725;DHT22;42608;52.776;6.968;2023-02-13T03:42:51;7.20;99.90
56725;DHT22;42608;52.776;6.968;2023-02-13T03:45:20;7.20;99.90
56725;DHT22;42608;52.776;6.968;2023-02-13T03:48:05;7.20;99.90
56725;DHT22;42608;52.776;6.968;2023-02-13T03:50:35;7.20;99.90
56725;DHT22;42608;52.776;6.968;2023-02-13T03:53:05;7.20;99.90
56725;DHT22;42608;52.776;6.968;2023-02-13T03:55:32;7.20;99.90
56725;DHT22;42608;52.776;6.968;2023-02-13T03:58:25;7.20;99.90
56725;DHT22;42608;52.776;6.968;2023-02-13T04:01:11;7.20;99.90
56725;DHT22;42608;52.776;6.968;2023-02-13T04:04:00;7.20;99.90
56725;DHT22;42608;52.776;6.968;2023-02-13T04:06:34;7.20;99.90
56725;DHT22;42608;52.776;6.968;2023-02-13T04:09:00;7.20;99.90
56725;DHT22;42608;52.776;6.968;2023-02-13T04:11:30;7.20;99.90
56725;DHT22;42608;52.776;6.968;2023-02-13T04:13:58;7.20;99.90
56725;DHT22;42608;52.776;6.968;2023-02-13T04:16:32;7.20;99.90
56725;DHT22;42608;52.776;6.968;2023-02-13T04:18:59;7.20;99.90
56725;DHT22;42608;52.776;6.968;2023-02-13T04:21:25;7.20;99.90
56725;DHT22;42608;52.776;6.968;2023-02-13T04:23:50;7.20;99.90
56725;DHT22;42608;52.776;6.968;2023-02-13T04:26:17;7.20;99.90
56725;DHT22;42608;52.776;6.968;2023-02-13T04:28:43;7.20;99.90
56725;DHT22;42608;52.776;6.968;2023-02-13T04:31:08;7.20;99.90
56725;DHT22;42608;52.776;6.968;2023-02-13T04:33:34;7.20;99.90
56725;DHT22;42608;52.776;6.968;2023-02-13T04:35:59;7.20;99.90
56725;DHT22;42608;52.776;6.968;2023-02-13T04:38:25;7.20;99.90
56725;DHT22;42608;52.776;6.968;2023-02-13T04:40:50;7.20;99.90
56725;DHT22;42608;52.776;6.968;2023-02-13T04:43:16;7.20;99.90
56725;DHT22;42608;52.776;6.968;2023-02-13T04:45:42;7.20;99.90
56725;DHT22;42608;52.776;6.968;2023-02-13T04:48:07;7.20;99.90
56725;DHT22;42608;52.776;6.968;2023-02-13T04:50:33;7.20;99.90
56725;DHT22;42608;52.776;6.968;2023-02-13T04:52:58;7.20;99.90
56725;DHT22;42608;52.776;6.968;2023-02-13T04:55:25;7.20;99.90
56725;DHT22;42608;52.776;6.968;2023-02-13T04:57:51;7.20;99.90
56725;DHT22;42608;52.776;6.968;2023-02-13T05:00:18;7.20;99.90
56725;DHT22;42608;52.776;6.968;2023-02-13T05:02:44;7.20;99.90
56725;DHT22;42608;52.776;6.968;2023-02-13T05:05:10;7.20;99.90
56725;DHT22;42608;52.776;6.968;2023-02-13T05:07:35;7.20;99.90
56725;DHT22;42608;52.776;6.968;2023-02-13T05:10:01;7.10;99.90
56725;DHT22;42608;52.776;6.968;2023-02-13T05:12:26;7.20;99.90
56725;DHT22;42608;52.776;6.968;2023-02-13T05:14:52;7.10;99.90
56725;DHT22;42608;52.776;6.968;2023-02-13T05:17:17;7.20;99.90
56725;DHT22;42608;52.776;6.968;2023-02-13T05:19:43;7.20;99.90
56725;DHT22;42608;52.776;6.968;2023-02-13T05:22:09;7.20;99.90
56725;DHT22;42608;52.776;6.968;2023-02-13T05:24:53;7.20;99.90
56725;DHT22;42608;52.776;6.968;2023-02-13T05:27:19;7.20;99.90
56725;DHT22;42608;52.776;6.968;2023-02-13T05:29:44;7.20;99.90
56725;DHT22;42608;52.776;6.968;2023-02-13T05:32:10;7.10;99.90
56725;DHT22;42608;52.776;6.968;2023-02-13T05:34:35;7.10;99.90
56725;DHT22;42608;52.776;6.968;2023-02-13T05:37:01;7.00;99.90
56725;DHT22;42608;52.776;6.968;2023-02-13T05:39:26;7.00;99.90
56725;DHT22;42608;52.776;6.968;2023-02-13T05:41:52;7.00;99.90
56725;DHT22;42608;52.776;6.968;2023-02-13T05:44:17;7.00;99.90
56725;DHT22;42608;52.776;6.968;2023-02-13T05:46:43;6.90;99.90
56725;DHT22;42608;52.776;6.968;2023-02-13T05:49:09;6.90;99.90
56725;DHT22;42608;52.776;6.968;2023-02-13T05:51:35;6.90;99.90
56725;DHT22;42608;52.776;6.968;2023-02-13T05:54:00;6.90;99.90
56725;DHT22;42608;52.776;6.968;2023-02-13T05:56:26;6.90;99.90
56725;DHT22;42608;52.776;6.968;2023-02-13T05:58:53;7.00;99.90
56725;DHT22;42608;52.776;6.968;2023-02-13T06:01:19;6.90;99.90
56725;DHT22;42608;52.776;6.968;2023-02-13T06:03:44;6.90;99.90
56725;DHT22;42608;52.776;6.968;2023-02-13T06:06:10;6.80;99.90
56725;DHT22;42608;52.776;6.968;2023-02-13T06:08:35;6.80;99.90
56725;DHT22;42608;52.776;6.968;2023-02-13T06:11:01;6.90;99.90
56725;DHT22;42608;52.776;6.968;2023-02-13T06:13:27;6.90;99.90
56725;DHT22;42608;52.776;6.968;2023-02-13T06:15:53;6.90;99.90
56725;DHT22;42608;52.776;6.968;2023-02-13T06:18:18;6.90;99.90
56725;DHT22;42608;52.776;6.968;2023-02-13T06:20:44;6.90;99.90
56725;DHT22;42608;52.776;6.968;2023-02-13T06:23:09;6.80;99.90
56725;DHT22;42608;52.776;6.968;2023-02-13T06:25:35;6.90;99.90
56725;DHT22;42608;52.776;6.968;2023-02-13T06:28:01;6.90;99.90
56725;DHT22;42608;52.776;6.968;2023-02-13T06:30:26;6.90;99.90
56725;DHT22;42608;52.776;6.968;2023-02-13T06:32:52;6.90;99.90
56725;DHT22;42608;52.776;6.968;2023-02-13T06:35:18;6.90;99.90
56725;DHT22;42608;52.776;6.968;2023-02-13T06:37:43;6.90;99.90
56725;DHT22;42608;52.776;6.968;2023-02-13T06:40:10;6.90;99.90
56725;DHT22;42608;52.776;6.968;2023-02-13T06:42:36;6.90;99.90
56725;DHT22;42608;52.776;6.968;2023-02-13T06:45:02;6.80;99.90
56725;DHT22;42608;52.776;6.968;2023-02-13T06:47:28;6.90;99.90
56725;DHT22;42608;52.776;6.968;2023-02-13T06:49:53;6.80;99.90
56725;DHT22;42608;52.776;6.968;2023-02-13T06:52:19;6.80;99.90
56725;DHT22;42608;52.776;6.968;2023-02-13T06:54:44;6.80;99.90
56725;DHT22;42608;52.776;6.968;2023-02-13T06:57:10;6.90;99.90
56725;DHT22;42608;52.776;6.968;2023-02-13T06:59:36;6.90;99.90
56725;DHT22;42608;52.776;6.968;2023-02-13T07:02:01;6.90;99.90
56725;DHT22;42608;52.776;6.968;2023-02-13T07:04:27;6.90;99.90
56725;DHT22;42608;52.776;6.968;2023-02-13T07:06:56;6.90;99.90
56725;DHT22;42608;52.776;6.968;2023-02-13T07:09:24;6.90;99.90
56725;DHT22;42608;52.776;6.968;2023-02-13T07:11:50;6.90;99.90
56725;DHT22;42608;52.776;6.968;2023-02-13T07:14:15;6.90;99.90
56725;DHT22;42608;52.776;6.968;2023-02-13T07:16:41;6.90;99.90
56725;DHT22;42608;52.776;6.968;2023-02-13T07:19:06;6.90;99.90
56725;DHT22;42608;52.776;6.968;2023-02-13T07:21:32;6.90;99.90
56725;DHT22;42608;52.776;6.968;2023-02-13T07:23:58;6.90;99.90
56725;DHT22;42608;52.776;6.968;2023-02-13T07:26:23;6.90;99.90
56725;DHT22;42608;52.776;6.968;2023-02-13T07:28:51;6.90;99.90
56725;DHT22;42608;52.776;6.968;2023-02-13T07:31:16;6.80;99.90
56725;DHT22;42608;52.776;6.968;2023-02-13T07:33:42;6.80;99.90
56725;DHT22;42608;52.776;6.968;2023-02-13T07:36:07;6.80;99.90
56725;DHT22;42608;52.776;6.968;2023-02-13T07:38:33;6.90;99.90
56725;DHT22;42608;52.776;6.968;2023-02-13T07:40:59;6.90;99.90
56725;DHT22;42608;52.776;6.968;2023-02-13T07:43:25;6.90;99.90
56725;DHT22;42608;52.776;6.968;2023-02-13T07:45:51;6.90;99.90
56725;DHT22;42608;52.776;6.968;2023-02-13T07:48:21;6.90;99.90
56725;DHT22;42608;52.776;6.968;2023-02-13T07:50:46;6.80;99.90
56725;DHT22;42608;52.776;6.968;2023-02-13T07:53:12;6.90;99.90
56725;DHT22;42608;52.776;6.968;2023-02-13T07:55:37;6.80;99.90
56725;DHT22;42608;52.776;6.968;2023-02-13T07:58:04;6.80;99.90
56725;DHT22;42608;52.776;6.968;2023-02-13T08:00:29;6.90;99.90
56725;DHT22;42608;52.776;6.968;2023-02-13T08:02:57;6.80;99.90
56725;DHT22;42608;52.776;6.968;2023-02-13T08:05:23;6.90;99.90
56725;DHT22;42608;52.776;6.968;2023-02-13T08:07:48;6.90;99.90
56725;DHT22;42608;52.776;6.968;2023-02-13T08:10:14;6.90;99.90
56725;DHT22;42608;52.776;6.968;2023-02-13T08:12:58;6.90;99.90
56725;DHT22;42608;52.776;6.968;2023-02-13T08:15:24;6.90;99.90
56725;DHT22;42608;52.776;6.968;2023-02-13T08:17:50;6.90;99.90
56725;DHT22;42608;52.776;6.968;2023-02-13T08:20:15;6.90;99.90
56725;DHT22;42608;52.776;6.968;2023-02-13T08:22:41;6.90;99.90
56725;DHT22;42608;52.776;6.968;2023-02-13T08:25:07;6.90;99.90
56725;DHT22;42608;52.776;6.968;2023-02-13T08:27:33;7.00;99.90
56725;DHT22;42608;52.776;6.968;2023-02-13T08:29:58;7.00;99.90
56725;DHT22;42608;52.776;6.968;2023-02-13T08:32:24;7.00;99.90
56725;DHT22;42608;52.776;6.968;2023-02-13T08:34:50;7.00;99.90
56725;DHT22;42608;52.776;6.968;2023-02-13T08:37:16;7.00;99.90
56725;DHT22;42608;52.776;6.968;2023-02-13T08:39:42;7.00;99.90
56725;DHT22;42608;52.776;6.968;2023-02-13T08:42:07;7.10;99.90
56725;DHT22;42608;52.776;6.968;2023-02-13T08:44:33;7.10;99.90
56725;DHT22;42608;52.776;6.968;2023-02-13T08:46:59;7.10;99.90
56725;DHT22;42608;52.776;6.968;2023-02-13T08:49:28;7.10;99.90
56725;DHT22;42608;52.776;6.968;2023-02-13T08:51:54;7.10;99.90
56725;DHT22;42608;52.776;6.968;2023-02-13T08:54:19;7.10;99.90
56725;DHT22;42608;52.776;6.968;2023-02-13T08:56:45;7.10;99.90
56725;DHT22;42608;52.776;6.968;2023-02-13T08:59:10;7.20;99.90
56725;DHT22;42608;52.776;6.968;2023-02-13T09:01:36;7.20;99.90
56725;DHT22;42608;52.776;6.968;2023-02-13T09:04:02;7.20;99.90
56725;DHT22;42608;52.776;6.968;2023-02-13T09:06:27;7.20;99.90
56725;DHT22;42608;52.776;6.968;2023-02-13T09:08:53;7.20;99.90
56725;DHT22;42608;52.776;6.968;2023-02-13T09:11:19;7.20;99.90
56725;DHT22;42608;52.776;6.968;2023-02-13T09:13:47;7.20;99.90
56725;DHT22;42608;52.776;6.968;2023-02-13T09:16:12;7.30;99.90
56725;DHT22;42608;52.776;6.968;2023-02-13T09:18:38;7.30;99.90
56725;DHT22;42608;52.776;6.968;2023-02-13T09:21:05;7.30;99.90
56725;DHT22;42608;52.776;6.968;2023-02-13T09:23:31;7.30;99.90
56725;DHT22;42608;52.776;6.968;2023-02-13T09:25:57;7.40;99.90
56725;DHT22;42608;52.776;6.968;2023-02-13T09:28:23;7.40;99.90
56725;DHT22;42608;52.776;6.968;2023-02-13T09:30:49;7.40;99.90
56725;DHT22;42608;52.776;6.968;2023-02-13T09:33:14;7.40;99.90
56725;DHT22;42608;52.776;6.968;2023-02-13T09:35:40;7.40;99.90
56725;DHT22;42608;52.776;6.968;2023-02-13T09:38:06;7.40;99.90
56725;DHT22;42608;52.776;6.968;2023-02-13T09:40:36;7.40;99.90
56725;DHT22;42608;52.776;6.968;2023-02-13T09:43:16;7.50;99.90
56725;DHT22;42608;52.776;6.968;2023-02-13T09:45:42;7.50;99.90
56725;DHT22;42608;52.776;6.968;2023-02-13T09:48:14;7.50;99.90
56725;DHT22;42608;52.776;6.968;2023-02-13T09:50:42;7.50;99.90
56725;DHT22;42608;52.776;6.968;2023-02-13T09:53:08;7.50;99.90
56725;DHT22;42608;52.776;6.968;2023-02-13T09:55:45;7.60;99.90
56725;DHT22;42608;52.776;6.968;2023-02-13T10:00:55;7.60;99.90
56725;DHT22;42608;52.776;6.968;2023-02-13T10:06:23;7.70;99.90
56725;DHT22;42608;52.776;6.968;2023-02-13T10:09:00;7.70;99.90
56725;DHT22;42608;52.776;6.968;2023-02-13T10:11:44;7.70;99.90
56725;DHT22;42608;52.776;6.968;2023-02-13T10:14:18;7.80;99.90
56725;DHT22;42608;52.776;6.968;2023-02-13T10:16:49;7.80;99.90
56725;DHT22;42608;52.776;6.968;2023-02-13T10:21:47;7.80;99.90
56725;DHT22;42608;52.776;6.968;2023-02-13T10:24:19;7.80;99.90
56725;DHT22;42608;52.776;6.968;2023-02-13T10:26:48;7.90;99.90
56725;DHT22;42608;52.776;6.968;2023-02-13T10:31:59;7.90;99.90
56725;DHT22;42608;52.776;6.968;2023-02-13T10:34:25;8.00;99.90
56725;DHT22;42608;52.776;6.968;2023-02-13T10:36:52;8.00;99.90
56725;DHT22;42608;52.776;6.968;2023-02-13T10:39:25;8.10;99.90
56725;DHT22;42608;52.776;6.968;2023-02-13T10:41:54;8.10;99.90
56725;DHT22;42608;52.776;6.968;2023-02-13T10:47:05;8.10;99.90
56725;DHT22;42608;52.776;6.968;2023-02-13T11:04:37;8.40;99.90
56725;DHT22;42608;52.776;6.968;2023-02-13T11:07:08;8.40;99.90
56725;DHT22;42608;52.776;6.968;2023-02-13T11:09:37;8.50;99.90
56725;DHT22;42608;52.776;6.968;2023-02-13T11:14:58;8.50;99.90
56725;DHT22;42608;52.776;6.968;2023-02-13T11:17:24;8.60;99.90
56725;DHT22;42608;52.776;6.968;2023-02-13T11:19:54;8.60;99.90
56725;DHT22;42608;52.776;6.968;2023-02-13T11:22:29;8.60;99.90
56725;DHT22;42608;52.776;6.968;2023-02-13T11:24:57;8.70;99.90
56725;DHT22;42608;52.776;6.968;2023-02-13T11:27:27;8.70;99.90
56725;DHT22;42608;52.776;6.968;2023-02-13T11:29:58;8.80;99.90
56725;DHT22;42608;52.776;6.968;2023-02-13T11:34:50;8.80;99.90
56725;DHT22;42608;52.776;6.968;2023-02-13T11:37:24;8.90;99.90
56725;DHT22;42608;52.776;6.968;2023-02-13T11:39:51;8.90;99.90
56725;DHT22;42608;52.776;6.968;2023-02-13T11:42:27;8.90;99.90
56725;DHT22;42608;52.776;6.968;2023-02-13T11:44:54;8.90;99.90
56725;DHT22;42608;52.776;6.968;2023-02-13T11:47:55;9.00;99.90
56725;DHT22;42608;52.776;6.968;2023-02-13T11:50:33;9.00;99.90
56725;DHT22;42608;52.776;6.968;2023-02-13T11:57:55;9.10;99.90
56725;DHT22;42608;52.776;6.968;2023-02-13T12:00:32;9.20;99.90
56725;DHT22;42608;52.776;6.968;2023-02-13T12:03:02;9.20;99.90
56725;DHT22;42608;52.776;6.968;2023-02-13T12:06:10;9.20;99.90
56725;DHT22;42608;52.776;6.968;2023-02-13T12:08:43;9.20;99.90
56725;DHT22;42608;52.776;6.968;2023-02-13T12:14:13;9.30;99.90
56725;DHT22;42608;52.776;6.968;2023-02-13T12:19:35;9.30;99.90
56725;DHT22;42608;52.776;6.968;2023-02-13T12:37:42;9.50;99.90
56725;DHT22;42608;52.776;6.968;2023-02-13T12:42:48;9.50;99.90
56725;DHT22;42608;52.776;6.968;2023-02-13T12:52:35;9.70;99.90
56725;DHT22;42608;52.776;6.968;2023-02-13T13:05:23;9.80;99.90
56725;DHT22;42608;52.776;6.968;2023-02-13T13:10:23;9.70;99.90
56725;DHT22;42608;52.776;6.968;2023-02-13T13:13:11;9.70;99.90
56725;DHT22;42608;52.776;6.968;2023-02-13T13:15:45;9.70;99.90
56725;DHT22;42608;52.776;6.968;2023-02-13T13:18:20;9.70;99.90
56725;DHT22;42608;52.776;6.968;2023-02-13T13:23:22;9.80;99.90
56725;DHT22;42608;52.776;6.968;2023-02-13T13:28:28;10.00;99.90
56725;DHT22;42608;52.776;6.968;2023-02-13T13:30:54;10.00;99.90
56725;DHT22;42608;52.776;6.968;2023-02-13T13:33:22;10.10;99.90
56725;DHT22;42608;52.776;6.968;2023-02-13T13:38:38;10.20;99.90
56725;DHT22;42608;52.776;6.968;2023-02-13T13:41:09;10.20;99.90
56725;DHT22;42608;52.776;6.968;2023-02-13T13:51:13;10.10;99.90
56725;DHT22;42608;52.776;6.968;2023-02-13T13:56:24;10.00;99.90
56725;DHT22;42608;52.776;6.968;2023-02-13T13:58:50;10.00;99.90
56725;DHT22;42608;52.776;6.968;2023-02-13T14:03:45;10.10;99.90
56725;DHT22;42608;52.776;6.968;2023-02-13T14:06:15;10.10;99.90
56725;DHT22;42608;52.776;6.968;2023-02-13T14:11:30;10.30;99.90
56725;DHT22;42608;52.776;6.968;2023-02-13T14:13:54;10.40;99.90
56725;DHT22;42608;52.776;6.968;2023-02-13T14:19:05;10.40;99.90
56725;DHT22;42608;52.776;6.968;2023-02-13T14:21:30;10.40;99.90
56725;DHT22;42608;52.776;6.968;2023-02-13T14:23:56;10.40;99.90
56725;DHT22;42608;52.776;6.968;2023-02-13T14:26:35;10.40;99.90
56725;DHT22;42608;52.776;6.968;2023-02-13T14:29:24;10.50;99.90
56725;DHT22;42608;52.776;6.968;2023-02-13T14:31:57;10.50;99.90
56725;DHT22;42608;52.776;6.968;2023-02-13T14:34:24;10.50;99.90
56725;DHT22;42608;52.776;6.968;2023-02-13T14:39:41;10.60;99.90
56725;DHT22;42608;52.776;6.968;2023-02-13T14:42:24;10.60;99.90
56725;DHT22;42608;52.776;6.968;2023-02-13T14:44:52;10.60;99.90
56725;DHT22;42608;52.776;6.968;2023-02-13T14:47:30;10.60;99.90
56725;DHT22;42608;52.776;6.968;2023-02-13T14:49:56;10.50;99.90
56725;DHT22;42608;52.776;6.968;2023-02-13T14:52:26;10.50;99.90
56725;DHT22;42608;52.776;6.968;2023-02-13T14:54:58;10.50;99.90
56725;DHT22;42608;52.776;6.968;2023-02-13T14:57:26;10.40;99.90
56725;DHT22;42608;52.776;6.968;2023-02-13T15:02:50;10.40;99.90
56725;DHT22;42608;52.776;6.968;2023-02-13T15:05:17;10.40;99.90
56725;DHT22;42608;52.776;6.968;2023-02-13T15:07:51;10.40;99.90
56725;DHT22;42608;52.776;6.968;2023-02-13T15:10:35;10.50;99.90
56725;DHT22;42608;52.776;6.968;2023-02-13T15:13:11;10.50;99.90
56725;DHT22;42608;52.776;6.968;2023-02-13T15:15:37;10.50;99.90
56725;DHT22;42608;52.776;6.968;2023-02-13T15:18:08;10.40;99.90
56725;DHT22;42608;52.776;6.968;2023-02-13T15:20:35;10.30;99.90
56725;DHT22;42608;52.776;6.968;2023-02-13T15:23:02;10.30;99.90
56725;DHT22;42608;52.776;6.968;2023-02-13T15:25:37;10.30;99.90
56725;DHT22;42608;52.776;6.968;2023-02-13T15:28:04;10.20;99.90
56725;DHT22;42608;52.776;6.968;2023-02-13T15:30:36;10.20;99.90
56725;DHT22;42608;52.776;6.968;2023-02-13T15:33:03;10.20;99.90
56725;DHT22;42608;52.776;6.968;2023-02-13T15:35:36;10.10;99.90
56725;DHT22;42608;52.776;6.968;2023-02-13T15:40:46;10.10;99.90
56725;DHT22;42608;52.776;6.968;2023-02-13T15:43:34;10.10;99.90
56725;DHT22;42608;52.776;6.968;2023-02-13T15:48:49;10.00;99.90
56725;DHT22;42608;52.776;6.968;2023-02-13T15:51:17;10.00;99.90
56725;DHT22;42608;52.776;6.968;2023-02-13T15:53:50;10.00;99.90
56725;DHT22;42608;52.776;6.968;2023-02-13T15:56:16;10.00;99.90
56725;DHT22;42608;52.776;6.968;2023-02-13T15:58:41;10.00;99.90
56725;DHT22;42608;52.776;6.968;2023-02-13T16:01:07;9.90;99.90
56725;DHT22;42608;52.776;6.968;2023-02-13T16:03:33;9.90;99.90
56725;DHT22;42608;52.776;6.968;2023-02-13T16:05:59;9.90;99.90
56725;DHT22;42608;52.776;6.968;2023-02-13T16:11:06;9.80;99.90
56725;DHT22;42608;52.776;6.968;2023-02-13T16:13:32;9.70;99.90
56725;DHT22;42608;52.776;6.968;2023-02-13T16:15:58;9.60;99.90
56725;DHT22;42608;52.776;6.968;2023-02-13T16:18:24;9.50;99.90
56725;DHT22;42608;52.776;6.968;2023-02-13T16:20:53;9.50;99.90
56725;DHT22;42608;52.776;6.968;2023-02-13T16:23:20;9.40;99.90
56725;DHT22;42608;52.776;6.968;2023-02-13T16:25:46;9.30;99.90
56725;DHT22;42608;52.776;6.968;2023-02-13T16:28:20;9.20;99.90
56725;DHT22;42608;52.776;6.968;2023-02-13T16:30:57;9.20;99.90
56725;DHT22;42608;52.776;6.968;2023-02-13T16:35:53;9.00;99.90
56725;DHT22;42608;52.776;6.968;2023-02-13T16:38:23;9.00;99.90
56725;DHT22;42608;52.776;6.968;2023-02-13T16:40:49;9.00;99.90
56725;DHT22;42608;52.776;6.968;2023-02-13T16:51:23;8.70;99.90
56725;DHT22;42608;52.776;6.968;2023-02-13T16:54:00;8.60;99.90
56725;DHT22;42608;52.776;6.968;2023-02-13T16:56:26;8.60;99.90
56725;DHT22;42608;52.776;6.968;2023-02-13T17:01:47;8.40;99.90
56725;DHT22;42608;52.776;6.968;2023-02-13T17:04:22;8.40;99.90
56725;DHT22;42608;52.776;6.968;2023-02-13T17:06:57;8.30;99.90
56725;DHT22;42608;52.776;6.968;2023-02-13T17:09:23;8.30;99.90
56725;DHT22;42608;52.776;6.968;2023-02-13T17:11:49;8.30;99.90
56725;DHT22;42608;52.776;6.968;2023-02-13T17:14:15;8.20;99.90
56725;DHT22;42608;52.776;6.968;2023-02-13T17:16:41;8.20;99.90
56725;DHT22;42608;52.776;6.968;2023-02-13T17:19:07;8.20;99.90
56725;DHT22;42608;52.776;6.968;2023-02-13T17:21:32;8.10;99.90
56725;DHT22;42608;52.776;6.968;2023-02-13T17:23:58;8.10;99.90
56725;DHT22;42608;52.776;6.968;2023-02-13T17:26:24;8.00;99.90
56725;DHT22;42608;52.776;6.968;2023-02-13T17:28:50;7.90;99.90
56725;DHT22;42608;52.776;6.968;2023-02-13T17:31:15;7.90;99.90
56725;DHT22;42608;52.776;6.968;2023-02-13T17:33:41;7.80;99.90
56725;DHT22;42608;52.776;6.968;2023-02-13T17:36:08;7.80;99.90
56725;DHT22;42608;52.776;6.968;2023-02-13T17:38:35;7.70;99.90
56725;DHT22;42608;52.776;6.968;2023-02-13T17:41:00;7.70;99.90
56725;DHT22;42608;52.776;6.968;2023-02-13T17:43:26;7.60;99.90
56725;DHT22;42608;52.776;6.968;2023-02-13T17:45:52;7.60;99.90
56725;DHT22;42608;52.776;6.968;2023-02-13T17:48:17;7.60;99.90
56725;DHT22;42608;52.776;6.968;2023-02-13T17:50:43;7.50;99.90
56725;DHT22;42608;52.776;6.968;2023-02-13T17:53:17;7.40;99.90
56725;DHT22;42608;52.776;6.968;2023-02-13T17:55:45;7.30;99.90
56725;DHT22;42608;52.776;6.968;2023-02-13T17:58:10;7.30;99.90
56725;DHT22;42608;52.776;6.968;2023-02-13T18:00:36;7.20;99.90
56725;DHT22;42608;52.776;6.968;2023-02-13T18:03:02;7.20;99.90
56725;DHT22;42608;52.776;6.968;2023-02-13T18:05:28;7.20;99.90
56725;DHT22;42608;52.776;6.968;2023-02-13T18:07:55;7.20;99.90
56725;DHT22;42608;52.776;6.968;2023-02-13T18:10:24;7.10;99.90
56725;DHT22;42608;52.776;6.968;2023-02-13T18:12:51;7.10;99.90
56725;DHT22;42608;52.776;6.968;2023-02-13T18:15:17;7.10;99.90
56725;DHT22;42608;52.776;6.968;2023-02-13T18:17:43;7.00;99.90
56725;DHT22;42608;52.776;6.968;2023-02-13T18:20:10;7.00;99.90
56725;DHT22;42608;52.776;6.968;2023-02-13T18:22:36;7.00;99.90
56725;DHT22;42608;52.776;6.968;2023-02-13T18:25:02;6.90;99.90
56725;DHT22;42608;52.776;6.968;2023-02-13T18:27:27;6.90;99.90
56725;DHT22;42608;52.776;6.968;2023-02-13T18:29:54;6.90;99.90
56725;DHT22;42608;52.776;6.968;2023-02-13T18:32:20;6.80;99.90
56725;DHT22;42608;52.776;6.968;2023-02-13T18:34:45;6.80;99.90
56725;DHT22;42608;52.776;6.968;2023-02-13T18:37:11;6.80;99.90
56725;DHT22;42608;52.776;6.968;2023-02-13T18:39:37;6.80;99.90